Time;durP1;ratioP1;P1;durP2;ratioP2;P2;SDS_P1;SDS_P2;PMS_P1;PMS_P2;Temp;Humidity;BMP_temperature;BMP_pressure;BME280_temperature;BME280_humidity;BME280_pressure;Samples;Min_cycle;Max_cycle;Signal;HPM_P1;HPM_P2
2023/07/08 00:01:27;;;;;;;7.60;6.80;;;;;;;22.38;40.29;98143.47;4997758;28;20280;-80
2023/07/08 00:03:53;;;;;;;8.23;7.07;;;;;;;22.36;39.32;98148.34;4997807;28;20671;-79
2023/07/08 00:06:26;;;;;;;8.93;7.05;;;;;;;22.33;39.53;98149.72;4998309;28;20235;-80
2023/07/08 00:08:53;;;;;;;7.40;6.63;;;;;;;22.29;40.38;98145.22;4998759;28;20213;-80
2023/07/08 00:11:19;;;;;;;8.00;6.47;;;;;;;22.25;40.21;98142.25;4998654;28;20206;-79
2023/07/08 00:13:47;;;;;;;7.40;6.63;;;;;;;22.22;39.67;98137.44;4999431;28;20679;-79
2023/07/08 00:16:19;;;;;;;7.47;6.72;;;;;;;22.20;40.26;98136.13;4995849;28;20219;-79
2023/07/08 00:18:48;;;;;;;7.45;6.65;;;;;;;22.19;40.50;98132.59;4998982;28;20285;-79
2023/07/08 00:21:17;;;;;;;8.10;6.67;;;;;;;22.18;40.53;98124.75;4997635;28;20577;-79
2023/07/08 00:23:51;;;;;;;8.05;6.65;;;;;;;22.16;40.55;98126.97;4998362;28;20211;-79
2023/07/08 00:26:24;;;;;;;7.93;7.13;;;;;;;22.20;40.30;98122.56;4992959;28;20232;-79
2023/07/08 00:28:51;;;;;;;7.80;6.80;;;;;;;22.18;40.44;98135.59;4983259;28;20219;-79
2023/07/08 00:31:23;;;;;;;8.70;6.78;;;;;;;22.14;40.29;98123.72;4991955;28;20213;-79
2023/07/08 00:33:50;;;;;;;7.30;6.50;;;;;;;22.15;40.51;98122.66;4999022;28;20199;-79
2023/07/08 00:36:17;;;;;;;7.53;6.60;;;;;;;22.11;41.10;98116.19;4997606;28;20227;-79
2023/07/08 00:38:45;;;;;;;10.03;6.60;;;;;;;22.05;40.80;98115.44;4998012;28;20279;-79
2023/07/08 00:41:21;;;;;;;7.87;6.83;;;;;;;21.97;41.78;98121.50;4998825;28;20209;-79
2023/07/08 00:43:53;;;;;;;9.23;7.20;;;;;;;21.91;41.54;98119.97;4998836;28;20252;-79
2023/07/08 00:46:29;;;;;;;7.47;6.67;;;;;;;21.83;43.03;98127.91;4999426;28;20227;-79
2023/07/08 00:49:12;;;;;;;8.60;6.80;;;;;;;21.80;42.85;98140.13;4998798;28;20662;-79
2023/07/08 00:51:41;;;;;;;7.57;6.73;;;;;;;21.76;42.85;98143.69;4998434;28;20191;-79
2023/07/08 00:54:15;;;;;;;11.03;7.83;;;;;;;21.74;42.67;98137.75;4998404;28;20621;-79
2023/07/08 00:56:48;;;;;;;7.87;6.83;;;;;;;21.65;42.99;98148.38;4998518;28;20257;-79
2023/07/08 00:59:25;;;;;;;8.00;7.13;;;;;;;21.67;41.56;98140.00;4999095;28;20212;-79
2023/07/08 01:01:54;;;;;;;7.57;6.63;;;;;;;21.60;42.15;98136.81;5001953;28;20192;-79
2023/07/08 01:04:26;;;;;;;8.53;6.93;;;;;;;21.59;42.89;98141.44;5002747;28;20227;-79
2023/07/08 01:06:57;;;;;;;9.53;7.03;;;;;;;21.57;41.35;98137.41;5002878;28;20227;-79
2023/07/08 01:09:44;;;;;;;8.10;6.80;;;;;;;21.56;42.98;98141.19;5002768;28;20191;-79
2023/07/08 01:12:18;;;;;;;7.50;6.73;;;;;;;21.55;43.08;98132.28;5002464;28;20226;-79
2023/07/08 01:14:47;;;;;;;7.90;6.60;;;;;;;21.52;43.75;98123.94;5017988;28;20191;-79
2023/07/08 01:17:14;;;;;;;8.20;6.93;;;;;;;21.53;41.77;98131.72;5001816;28;20234;-79
2023/07/08 01:19:43;;;;;;;8.87;6.70;;;;;;;21.52;42.40;98126.63;5002239;28;20617;-79
2023/07/08 01:22:09;;;;;;;8.90;6.33;;;;;;;21.48;43.35;98120.97;5002768;28;20226;-79
2023/07/08 01:24:40;;;;;;;8.13;6.20;;;;;;;21.44;42.87;98128.03;5001955;28;20230;-79
2023/07/08 01:27:20;;;;;;;8.43;6.50;;;;;;;21.38;43.35;98131.91;5001718;28;20231;-79
2023/07/08 01:29:47;;;;;;;8.53;6.07;;;;;;;21.37;43.51;98138.41;5001893;28;20196;-79
2023/07/08 01:32:17;;;;;;;8.07;6.93;;;;;;;21.39;42.43;98127.31;5002503;28;20216;-79
2023/07/08 01:34:52;;;;;;;7.10;6.40;;;;;;;21.37;45.11;98129.47;5003092;28;20191;-79
2023/07/08 01:37:19;;;;;;;7.10;6.30;;;;;;;21.30;45.02;98129.81;5002453;28;20231;-79
2023/07/08 01:39:46;;;;;;;8.23;6.57;;;;;;;21.19;45.29;98132.91;5001550;28;20213;-79
2023/07/08 01:42:12;;;;;;;7.10;6.40;;;;;;;21.16;45.08;98128.09;5002234;28;20203;-79
2023/07/08 01:44:38;;;;;;;7.83;6.90;;;;;;;21.04;45.66;98127.63;5001836;28;20223;-79
2023/07/08 01:47:14;;;;;;;10.53;6.27;;;;;;;21.01;45.56;98125.50;5001407;28;20237;-79
2023/07/08 01:49:43;;;;;;;8.67;6.53;;;;;;;20.90;45.29;98119.41;5002589;28;20527;-79
2023/07/08 01:52:12;;;;;;;11.70;7.13;;;;;;;20.91;45.33;98121.00;5001804;28;20218;-79
2023/07/08 01:54:39;;;;;;;9.33;7.40;;;;;;;20.86;45.67;98118.31;5001244;28;20214;-79
2023/07/08 01:57:05;;;;;;;9.13;6.60;;;;;;;20.85;45.52;98122.06;5001725;28;20242;-79
2023/07/08 01:59:31;;;;;;;7.10;6.33;;;;;;;20.80;46.01;98127.53;5001389;28;20667;-79
2023/07/08 02:01:58;;;;;;;8.73;6.43;;;;;;;20.80;46.39;98124.81;5001469;28;20572;-79
2023/07/08 02:04:26;;;;;;;7.77;6.73;;;;;;;20.76;47.29;98122.97;5000959;28;20211;-79
2023/07/08 02:06:57;;;;;;;10.00;6.97;;;;;;;20.67;46.49;98119.28;5000837;28;20227;-79
2023/07/08 02:09:24;;;;;;;8.47;7.17;;;;;;;20.64;47.48;98119.81;5001239;28;20221;-79
2023/07/08 02:11:51;;;;;;;10.40;7.37;;;;;;;20.58;48.01;98118.25;5001068;28;20222;-79
2023/07/08 02:14:17;;;;;;;9.50;7.30;;;;;;;20.57;47.47;98113.94;5001168;28;20210;-79
2023/07/08 02:16:44;;;;;;;9.93;7.47;;;;;;;20.43;47.36;98123.78;5001634;28;20237;-79
2023/07/08 02:19:13;;;;;;;9.13;7.60;;;;;;;20.31;48.18;98121.41;5002398;28;20218;-79
2023/07/08 02:21:39;;;;;;;9.40;7.00;;;;;;;20.26;49.82;98129.50;5002053;28;20211;-79
2023/07/08 02:24:06;;;;;;;10.83;7.30;;;;;;;20.15;49.22;98132.53;5001991;28;20207;-79
2023/07/08 02:26:33;;;;;;;10.20;7.23;;;;;;;20.07;50.22;98135.81;4999685;28;20695;-79
2023/07/08 02:29:00;;;;;;;10.83;7.33;;;;;;;20.09;50.10;98129.09;5000226;28;20203;-79
2023/07/08 02:31:27;;;;;;;10.33;7.40;;;;;;;20.10;50.61;98130.69;4999834;28;20203;-79
2023/07/08 02:33:54;;;;;;;8.27;7.47;;;;;;;20.10;50.32;98135.28;5002074;28;20213;-79
2023/07/08 02:36:21;;;;;;;8.40;7.07;;;;;;;20.13;50.87;98134.72;5001401;28;20227;-79
2023/07/08 02:38:47;;;;;;;9.43;7.43;;;;;;;20.13;49.77;98132.03;5001372;28;20733;-79
2023/07/08 02:41:14;;;;;;;8.10;7.10;;;;;;;20.12;49.97;98138.53;5001253;28;20207;-79
2023/07/08 02:43:40;;;;;;;8.57;7.67;;;;;;;20.10;51.18;98140.69;5002281;28;20294;-79
2023/07/08 02:46:07;;;;;;;9.13;7.67;;;;;;;20.07;51.50;98133.13;5001632;28;20263;-79
2023/07/08 02:48:33;;;;;;;10.07;7.47;;;;;;;20.04;52.02;98145.28;5001974;28;20294;-80
2023/07/08 02:51:01;;;;;;;9.00;7.47;;;;;;;20.06;52.09;98136.88;5001074;28;20203;-79
2023/07/08 02:53:27;;;;;;;9.40;7.37;;;;;;;20.06;52.07;98139.56;5000592;28;20207;-79
2023/07/08 02:55:54;;;;;;;12.37;7.87;;;;;;;20.02;53.27;98141.25;5000243;28;20250;-79
2023/07/08 02:58:20;;;;;;;8.67;7.30;;;;;;;20.06;53.27;98144.97;5000289;28;20271;-79
2023/07/08 03:00:46;;;;;;;9.17;6.80;;;;;;;20.10;54.74;98146.06;5000720;28;20211;-79
2023/07/08 03:03:16;;;;;;;8.27;7.40;;;;;;;20.06;54.82;98151.19;5000114;28;20211;-79
2023/07/08 03:05:42;;;;;;;8.60;7.07;;;;;;;20.08;55.06;98159.84;5000485;28;20666;-79
2023/07/08 03:08:08;;;;;;;11.50;7.60;;;;;;;20.05;54.08;98171.19;5000950;28;20593;-79
2023/07/08 03:10:35;;;;;;;9.57;7.37;;;;;;;20.05;52.08;98175.75;5001811;28;20210;-79
2023/07/08 03:13:01;;;;;;;10.40;7.20;;;;;;;20.10;51.51;98178.47;5001410;28;20207;-79
2023/07/08 03:15:27;;;;;;;9.57;7.17;;;;;;;20.17;51.11;98170.88;5002354;28;20207;-79
2023/07/08 03:17:57;;;;;;;7.73;6.87;;;;;;;20.15;52.03;98167.66;5001722;28;20227;-79
2023/07/08 03:20:23;;;;;;;8.83;7.33;;;;;;;20.11;51.88;98170.09;5001795;28;20207;-79
2023/07/08 03:22:50;;;;;;;8.10;7.07;;;;;;;19.98;53.36;98176.06;5000564;28;20207;-79
2023/07/08 03:25:19;;;;;;;9.73;7.40;;;;;;;19.97;53.80;98187.94;5000258;28;20234;-79
2023/07/08 03:27:46;;;;;;;9.83;6.90;;;;;;;19.89;53.80;98174.22;5001029;28;20684;-79
2023/07/08 03:30:12;;;;;;;8.10;7.27;;;;;;;20.00;52.55;98157.72;5000542;28;20592;-79
2023/07/08 03:32:38;;;;;;;10.77;8.23;;;;;;;20.07;52.41;98152.00;5000770;28;20206;-79
2023/07/08 03:35:05;;;;;;;8.43;7.00;;;;;;;19.88;53.92;98180.66;4999103;28;20667;-79
2023/07/08 03:37:32;;;;;;;8.47;7.30;;;;;;;19.81;53.35;98180.97;4999696;28;20590;-79
2023/07/08 03:39:58;;;;;;;9.93;7.07;;;;;;;19.83;52.94;98159.09;5001139;28;20587;-79
2023/07/08 03:42:24;;;;;;;8.30;6.97;;;;;;;19.84;52.89;98153.44;5001374;28;20574;-79
2023/07/08 03:44:51;;;;;;;7.53;6.77;;;;;;;19.81;54.21;98164.78;5000899;28;20229;-79
2023/07/08 03:47:17;;;;;;;8.30;7.03;;;;;;;19.76;54.84;98166.69;5001036;28;20611;-80
2023/07/08 03:49:43;;;;;;;9.47;6.80;;;;;;;19.83;53.17;98170.72;5001117;28;20552;-79
2023/07/08 03:52:15;;;;;;;8.90;6.90;;;;;;;19.62;55.46;98174.53;5000108;28;20582;-80
2023/07/08 03:54:42;;;;;;;8.23;7.30;;;;;;;19.52;55.14;98161.09;4999143;28;20199;-79
2023/07/08 03:57:08;;;;;;;8.10;6.80;;;;;;;19.61;55.36;98186.44;4999465;28;20231;-79
2023/07/08 03:59:34;;;;;;;7.97;6.97;;;;;;;19.57;55.46;98179.16;4999910;28;20209;-79
2023/07/08 04:02:01;;;;;;;7.87;6.70;;;;;;;19.51;56.41;98189.94;4999900;28;20213;-79
2023/07/08 04:04:27;;;;;;;9.27;7.13;;;;;;;19.51;55.82;98181.84;4999513;28;20738;-80
2023/07/08 04:06:54;;;;;;;9.17;7.53;;;;;;;19.50;56.59;98174.84;4997168;28;20238;-79
2023/07/08 04:09:21;;;;;;;7.53;6.50;;;;;;;19.58;58.02;98176.16;4998340;28;20223;-79
2023/07/08 04:11:47;;;;;;;8.57;6.80;;;;;;;19.53;58.23;98173.50;5000174;28;20207;-79
2023/07/08 04:14:14;;;;;;;8.37;7.20;;;;;;;19.56;56.67;98172.94;5000019;28;20206;-79
2023/07/08 04:16:51;;;;;;;10.03;7.47;;;;;;;19.60;56.24;98172.13;4998073;28;20276;-80
2023/07/08 04:19:18;;;;;;;8.00;7.13;;;;;;;19.64;56.70;98170.50;4996318;28;20203;-79
2023/07/08 04:21:45;;;;;;;10.23;7.40;;;;;;;19.73;56.92;98181.53;4987329;28;20203;-79
2023/07/08 04:24:14;;;;;;;9.63;7.67;;;;;;;19.77;57.86;98177.22;5000255;28;20290;-79
2023/07/08 04:26:41;;;;;;;9.37;7.40;;;;;;;19.83;56.86;98173.41;4999596;28;20235;-79
2023/07/08 04:29:19;;;;;;;8.40;6.87;;;;;;;19.90;56.67;98163.13;4998883;28;20203;-79
2023/07/08 04:31:46;;;;;;;9.20;7.57;;;;;;;19.99;56.45;98166.88;4998980;28;20302;-80
2023/07/08 04:34:12;;;;;;;11.43;7.63;;;;;;;20.03;56.95;98164.44;5000696;28;20723;-79
2023/07/08 04:36:39;;;;;;;11.40;7.20;;;;;;;20.13;56.53;98165.25;5004153;28;20227;-79
2023/07/08 04:39:07;;;;;;;11.10;7.53;;;;;;;20.26;54.59;98167.31;5005289;28;20209;-79
2023/07/08 04:41:34;;;;;;;8.93;7.83;;;;;;;20.35;53.46;98160.25;5004065;28;20269;-79
2023/07/08 04:44:02;;;;;;;10.33;7.57;;;;;;;20.41;53.98;98156.44;5004252;28;20215;-79
2023/07/08 04:46:43;;;;;;;8.97;7.37;;;;;;;20.53;52.67;98166.91;5003910;28;20254;-79
2023/07/08 04:49:10;;;;;;;8.67;6.97;;;;;;;20.61;53.49;98161.72;5005509;28;20191;-79
2023/07/08 04:51:38;;;;;;;9.03;7.20;;;;;;;20.64;54.94;98171.16;5003902;28;20203;-79
2023/07/08 04:54:04;;;;;;;12.20;7.57;;;;;;;20.74;53.19;98165.66;5006307;28;20211;-79
2023/07/08 04:56:38;;;;;;;10.87;7.43;;;;;;;20.79;54.41;98171.06;5005640;28;20235;-79
2023/07/08 04:59:06;;;;;;;9.03;7.13;;;;;;;20.82;53.49;98190.22;5004065;28;20195;-79
2023/07/08 05:01:33;;;;;;;9.87;7.33;;;;;;;20.91;52.53;98174.22;5005695;28;20215;-79
2023/07/08 05:04:00;;;;;;;10.60;8.07;;;;;;;20.86;52.73;98168.84;5005205;28;20215;-79
2023/07/08 05:06:27;;;;;;;8.30;6.93;;;;;;;20.85;55.52;98169.94;5006054;28;20304;-79
2023/07/08 05:08:53;;;;;;;8.90;7.50;;;;;;;20.85;54.60;98183.44;5004908;28;20211;-79
2023/07/08 05:11:20;;;;;;;8.93;7.30;;;;;;;20.96;53.79;98172.31;5006158;28;20215;-79
2023/07/08 05:13:46;;;;;;;8.17;7.37;;;;;;;21.39;51.89;98176.00;5007361;28;20207;-79
2023/07/08 05:16:13;;;;;;;9.13;7.00;;;;;;;21.58;51.24;98172.28;5006475;28;20310;-80
2023/07/08 05:18:39;;;;;;;13.23;7.17;;;;;;;21.85;51.04;98185.28;5006780;28;20207;-79
2023/07/08 05:21:06;;;;;;;8.23;7.00;;;;;;;22.08;52.51;98181.75;5006803;28;20213;-79
2023/07/08 05:23:32;;;;;;;7.70;6.90;;;;;;;22.83;46.31;98180.78;5006040;28;20211;-79
2023/07/08 05:26:03;;;;;;;9.88;7.20;;;;;;;23.28;45.34;98183.56;5005168;28;20234;-79
2023/07/08 05:28:29;;;;;;;9.40;7.22;;;;;;;23.99;43.47;98193.97;5004889;28;20730;-79
2023/07/08 05:30:56;;;;;;;8.80;6.50;;;;;;;23.60;43.13;98205.25;5005303;28;20207;-79
2023/07/08 05:33:24;;;;;;;8.00;6.88;;;;;;;23.39;44.31;98208.63;5005685;28;20674;-80
2023/07/08 05:35:51;;;;;;;8.23;7.43;;;;;;;23.68;45.51;98196.44;5004824;28;20227;-79
2023/07/08 05:38:18;;;;;;;8.00;6.70;;;;;;;23.36;46.17;98187.50;5005879;28;20207;-79
2023/07/08 05:40:49;;;;;;;8.00;7.20;;;;;;;23.16;46.39;98196.75;5006969;28;20207;-80
2023/07/08 05:43:15;;;;;;;9.13;7.15;;;;;;;22.87;48.48;98211.59;5004858;28;20589;-80
2023/07/08 05:45:42;;;;;;;7.80;7.00;;;;;;;22.61;50.69;98215.78;5002714;28;20231;-79
2023/07/08 05:48:08;;;;;;;8.85;7.03;;;;;;;22.51;50.22;98222.13;5002181;28;20215;-80
2023/07/08 05:50:34;;;;;;;8.32;6.70;;;;;;;22.51;50.16;98215.88;5001643;28;20268;-79
2023/07/08 05:53:01;;;;;;;8.68;7.50;;;;;;;22.71;49.57;98213.72;5002168;28;20709;-79
2023/07/08 05:55:27;;;;;;;8.60;7.00;;;;;;;22.88;47.58;98215.94;5001436;28;20663;-79
2023/07/08 05:57:53;;;;;;;11.00;6.75;;;;;;;23.11;46.61;98206.91;5001764;28;20606;-80
2023/07/08 06:00:20;;;;;;;8.43;6.60;;;;;;;23.40;47.20;98205.63;5001929;28;20203;-79
2023/07/08 06:02:46;;;;;;;6.95;6.35;;;;;;;23.57;46.17;98213.19;5001297;28;20211;-79
2023/07/08 06:05:12;;;;;;;7.53;6.30;;;;;;;23.75;45.30;98215.03;5000579;28;20208;-79
2023/07/08 06:07:39;;;;;;;9.40;5.97;;;;;;;23.81;43.43;98211.13;5001897;28;20233;-79
2023/07/08 06:10:06;;;;;;;7.65;6.80;;;;;;;23.92;43.75;98213.38;5001986;28;20221;-79
2023/07/08 06:12:32;;;;;;;7.00;6.30;;;;;;;23.92;43.84;98218.81;5001745;28;20203;-79
2023/07/08 06:14:58;;;;;;;8.48;6.55;;;;;;;23.91;42.71;98224.53;5001477;28;20214;-79
2023/07/08 06:17:25;;;;;;;7.20;6.30;;;;;;;24.01;43.40;98225.16;5000812;28;20231;-79
2023/07/08 06:19:51;;;;;;;6.95;6.03;;;;;;;24.04;42.48;98224.56;5000976;28;20222;-79
2023/07/08 06:22:17;;;;;;;7.97;6.28;;;;;;;24.10;42.63;98222.56;5001664;28;20214;-79
2023/07/08 06:24:44;;;;;;;7.72;6.63;;;;;;;24.32;42.61;98226.16;5001957;28;20209;-79
2023/07/08 06:27:10;;;;;;;7.60;6.80;;;;;;;24.41;41.89;98221.63;5000762;28;20231;-79
2023/07/08 06:29:37;;;;;;;7.28;6.55;;;;;;;24.55;41.38;98224.31;5001587;28;20211;-79
2023/07/08 06:32:03;;;;;;;7.35;6.65;;;;;;;24.36;41.08;98237.22;4997483;28;20211;-76
2023/07/08 06:34:30;;;;;;;7.97;6.95;;;;;;;24.51;41.23;98231.50;4996218;28;20207;-76
2023/07/08 06:36:56;;;;;;;7.20;6.50;;;;;;;24.62;42.57;98225.56;4996092;28;20231;-76
2023/07/08 06:39:22;;;;;;;7.38;6.68;;;;;;;24.48;43.03;98227.47;4996103;28;20229;-76
2023/07/08 06:41:49;;;;;;;8.00;7.20;;;;;;;24.40;43.73;98233.59;4995872;28;20209;-76
2023/07/08 06:44:15;;;;;;;7.57;6.78;;;;;;;24.40;42.62;98233.59;4996592;28;20215;-76
2023/07/08 06:46:42;;;;;;;9.10;6.70;;;;;;;24.63;42.63;98238.03;4995810;28;20231;-76
2023/07/08 06:49:09;;;;;;;11.13;6.60;;;;;;;24.90;41.96;98248.03;4996189;28;20245;-76
2023/07/08 06:51:36;;;;;;;7.32;6.55;;;;;;;25.06;43.08;98246.59;4995867;28;20666;-76
2023/07/08 06:54:04;;;;;;;7.28;6.53;;;;;;;25.24;41.33;98253.78;4995730;28;20207;-76
2023/07/08 06:56:31;;;;;;;8.00;6.15;;;;;;;25.53;43.12;98246.00;4994953;28;20231;-76
2023/07/08 06:58:58;;;;;;;7.65;5.70;;;;;;;25.73;41.98;98240.06;4994917;28;20207;-76
2023/07/08 07:01:24;;;;;;;5.78;4.90;;;;;;;25.59;42.98;98244.75;4995396;28;20577;-76
2023/07/08 07:03:50;;;;;;;7.07;4.97;;;;;;;25.52;44.15;98250.69;4995390;28;20667;-76
2023/07/08 07:06:17;;;;;;;6.32;4.63;;;;;;;25.41;43.57;98251.22;4995439;28;20233;-76
2023/07/08 07:08:44;;;;;;;5.40;4.63;;;;;;;25.32;43.07;98253.88;4995414;28;20203;-76
2023/07/08 07:11:10;;;;;;;5.60;4.28;;;;;;;25.31;44.55;98260.44;4995143;28;20222;-76
2023/07/08 07:13:36;;;;;;;4.90;4.13;;;;;;;25.26;44.02;98262.44;4995119;28;20211;-76
2023/07/08 07:16:03;;;;;;;5.05;4.28;;;;;;;25.26;43.34;98252.41;4994874;28;20223;-76
2023/07/08 07:18:29;;;;;;;5.65;4.38;;;;;;;25.29;45.49;98253.69;4995055;28;20218;-76
2023/07/08 07:20:56;;;;;;;5.38;4.63;;;;;;;25.24;43.41;98259.22;4994654;28;20218;-76
2023/07/08 07:23:22;;;;;;;8.02;5.82;;;;;;;25.20;44.42;98260.97;4995198;28;20289;-76
2023/07/08 07:25:49;;;;;;;6.85;4.70;;;;;;;25.19;44.69;98270.25;4995091;28;20230;-76
2023/07/08 07:28:17;;;;;;;6.72;4.10;;;;;;;25.14;46.28;98267.63;4995016;28;20203;-76
2023/07/08 07:30:44;;;;;;;7.38;4.80;;;;;;;25.13;44.80;98260.56;4994577;28;20207;-76
2023/07/08 07:33:11;;;;;;;7.22;5.05;;;;;;;25.19;44.21;98256.63;4994914;28;20211;-76
2023/07/08 07:35:43;;;;;;;5.63;4.18;;;;;;;25.18;44.51;98266.72;4994694;28;20204;-76
2023/07/08 07:38:10;;;;;;;6.00;4.47;;;;;;;25.19;45.72;98270.25;4994785;28;20246;-76
2023/07/08 07:40:36;;;;;;;4.95;3.75;;;;;;;25.22;46.19;98269.59;4994985;28;20203;-76
2023/07/08 07:43:02;;;;;;;6.40;4.72;;;;;;;25.20;45.75;98274.56;4994318;28;20210;-76
2023/07/08 07:45:29;;;;;;;4.55;4.15;;;;;;;25.26;45.72;98274.16;4994397;28;20685;-76
2023/07/08 07:47:55;;;;;;;4.75;4.28;;;;;;;25.22;45.93;98275.06;4994409;28;20239;-76
2023/07/08 07:50:22;;;;;;;4.22;3.70;;;;;;;25.22;44.57;98272.31;4994161;28;20211;-76
2023/07/08 07:52:48;;;;;;;4.88;4.38;;;;;;;25.18;45.91;98276.78;4994928;28;20233;-76
2023/07/08 07:55:14;;;;;;;8.05;4.65;;;;;;;25.23;45.34;98276.69;4994593;28;20207;-76
2023/07/08 07:57:41;;;;;;;4.57;4.05;;;;;;;25.30;45.77;98277.91;4994169;28;20235;-76
2023/07/08 08:00:08;;;;;;;5.65;4.20;;;;;;;25.31;45.15;98279.50;4994429;28;20207;-76
2023/07/08 08:02:35;;;;;;;5.00;4.38;;;;;;;25.37;45.14;98277.47;4994049;28;20668;-76
2023/07/08 08:05:01;;;;;;;4.15;3.78;;;;;;;25.48;44.82;98267.94;4994506;28;20211;-76
2023/07/08 08:07:28;;;;;;;5.43;4.03;;;;;;;25.68;44.28;98270.13;4993924;28;20560;-76
2023/07/08 08:09:55;;;;;;;4.10;3.70;;;;;;;25.92;42.72;98265.16;4994063;28;20207;-76
2023/07/08 08:12:22;;;;;;;3.90;3.35;;;;;;;26.16;43.29;98261.00;4994296;28;20239;-76
2023/07/08 08:14:48;;;;;;;4.63;3.17;;;;;;;26.06;42.04;98263.97;4994119;28;20222;-76
2023/07/08 08:17:15;;;;;;;5.72;3.67;;;;;;;26.23;42.06;98260.53;4993709;28;20601;-76
2023/07/08 08:19:41;;;;;;;5.75;3.83;;;;;;;26.22;44.83;98264.38;4993816;28;20400;-76
2023/07/08 08:22:07;;;;;;;4.28;3.45;;;;;;;26.25;43.17;98280.09;4994278;28;20203;-76
2023/07/08 08:24:34;;;;;;;4.57;3.38;;;;;;;26.52;42.84;98279.88;4994637;28;20237;-76
2023/07/08 08:27:01;;;;;;;3.80;3.35;;;;;;;26.58;41.97;98274.00;4994129;28;20223;-76
2023/07/08 08:29:27;;;;;;;7.38;4.35;;;;;;;26.84;41.66;98276.78;4994138;28;20781;-76
2023/07/08 08:31:54;;;;;;;7.28;5.78;;;;;;;26.77;40.88;98279.16;4993940;28;20574;-76
2023/07/08 08:34:20;;;;;;;10.10;6.07;;;;;;;26.84;41.09;98283.06;4994067;28;20214;-76
2023/07/08 08:36:47;;;;;;;6.45;5.25;;;;;;;26.92;39.43;98284.97;4993746;28;20223;-75
2023/07/08 08:39:13;;;;;;;3.40;3.10;;;;;;;27.19;38.53;98281.19;4993905;28;20218;-79
2023/07/08 08:41:43;;;;;;;5.05;3.05;;;;;;;27.17;38.99;98271.69;4998907;28;20254;-79
2023/07/08 08:44:19;;;;;;;4.63;3.17;;;;;;;27.45;39.06;98262.84;4997843;28;20207;-79
2023/07/08 08:46:56;;;;;;;3.33;2.85;;;;;;;27.36;38.39;98270.28;4996718;28;20223;-80
2023/07/08 08:49:31;;;;;;;4.28;2.78;;;;;;;27.35;38.72;98263.19;4997757;28;20211;-79
2023/07/08 08:51:59;;;;;;;3.50;2.80;;;;;;;27.13;38.05;98281.63;4997499;28;20281;-79
2023/07/08 08:54:26;;;;;;;4.50;2.83;;;;;;;27.16;38.02;98284.53;4997785;28;20211;-79
2023/07/08 08:57:33;;;;;;;3.30;2.45;;;;;;;27.11;37.90;98284.69;4995307;28;20242;-79
2023/07/08 09:00:01;;;;;;;4.40;2.80;;;;;;;27.53;37.79;98289.38;4997971;28;20227;-79
2023/07/08 09:02:53;;;;;;;4.43;2.53;;;;;;;27.47;38.76;98284.38;4998492;28;20211;-79
2023/07/08 09:05:20;;;;;;;4.32;2.60;;;;;;;27.43;38.14;98288.88;4997674;28;20203;-80
2023/07/08 09:08:04;;;;;;;5.35;2.42;;;;;;;27.21;38.22;98284.38;4999893;28;20235;-80
2023/07/08 09:10:52;;;;;;;2.95;2.65;;;;;;;27.41;38.43;98285.69;5000391;28;20187;-79
2023/07/08 09:13:32;;;;;;;2.90;2.60;;;;;;;27.75;38.17;98286.44;4996630;28;20188;-79
2023/07/08 09:16:22;;;;;;;3.60;2.60;;;;;;;27.85;37.51;98283.41;4997978;28;20231;-79
2023/07/08 09:19:07;;;;;;;5.03;2.67;;;;;;;27.85;37.06;98286.13;4996589;28;20237;-76
2023/07/08 09:21:52;;;;;;;5.82;3.00;;;;;;;28.12;37.18;98285.75;4995929;28;20221;-76
2023/07/08 09:24:29;;;;;;;3.47;2.00;;;;;;;27.92;35.76;98289.19;4997584;28;20203;-76
2023/07/08 09:26:56;;;;;;;3.30;2.28;;;;;;;27.83;36.32;98296.59;4996026;28;20238;-76
2023/07/08 09:29:23;;;;;;;5.40;2.30;;;;;;;27.91;36.20;98284.03;4996983;28;20214;-76
2023/07/08 09:31:50;;;;;;;3.63;2.17;;;;;;;28.04;35.85;98288.50;4996743;28;20207;-76
2023/07/08 09:34:22;;;;;;;3.75;2.58;;;;;;;28.24;35.78;98279.59;4997210;28;20207;-76
2023/07/08 09:36:50;;;;;;;3.03;2.60;;;;;;;28.52;36.04;98275.34;4997047;28;20231;-76
2023/07/08 09:39:18;;;;;;;4.40;2.70;;;;;;;28.86;36.07;98284.16;4996780;28;20218;-76
2023/07/08 09:41:47;;;;;;;3.92;3.03;;;;;;;29.18;35.53;98280.72;4997109;28;20204;-76
2023/07/08 09:44:23;;;;;;;2.85;2.65;;;;;;;29.08;35.55;98274.84;4997251;28;20257;-75
2023/07/08 09:46:49;;;;;;;4.07;2.50;;;;;;;29.04;34.62;98276.66;4996563;28;20230;-76
2023/07/08 09:49:43;;;;;;;2.72;2.45;;;;;;;29.24;34.52;98284.88;4996881;28;20203;-76
2023/07/08 09:52:13;;;;;;;3.30;2.40;;;;;;;29.10;35.40;98281.59;4996288;28;20211;-76
2023/07/08 09:54:42;;;;;;;3.22;2.42;;;;;;;29.39;35.77;98270.56;4996821;28;20218;-76
2023/07/08 09:57:31;;;;;;;4.30;3.22;;;;;;;29.41;35.36;98275.69;4996281;28;20231;-76
2023/07/08 10:00:02;;;;;;;3.45;2.58;;;;;;;29.63;33.95;98273.44;4996468;28;20243;-76
2023/07/08 10:02:39;;;;;;;3.53;2.90;;;;;;;29.31;34.77;98273.38;4996312;28;20195;-76
2023/07/08 10:05:38;;;;;;;3.75;2.83;;;;;;;29.09;35.45;98273.69;4996598;28;20195;-75
2023/07/08 10:08:15;;;;;;;4.45;3.15;;;;;;;29.46;34.47;98280.97;4996333;28;20547;-76
2023/07/08 10:10:43;;;;;;;3.05;2.70;;;;;;;29.33;35.53;98282.84;4996869;28;20198;-76
2023/07/08 10:13:38;;;;;;;3.85;2.88;;;;;;;29.34;35.43;98275.44;4996694;28;20199;-76
2023/07/08 10:16:15;;;;;;;3.03;2.60;;;;;;;29.54;34.30;98271.88;4995958;28;20597;-76
2023/07/08 10:18:42;;;;;;;3.67;2.90;;;;;;;29.53;33.76;98282.03;4995908;28;20635;-76
2023/07/08 10:21:33;;;;;;;3.10;2.78;;;;;;;29.55;33.69;98276.22;4996293;28;20215;-76
2023/07/08 10:24:28;;;;;;;2.63;2.42;;;;;;;29.64;34.21;98275.03;4996320;28;20227;-75
2023/07/08 10:27:07;;;;;;;4.10;2.80;;;;;;;29.16;34.02;98273.97;4995911;28;20602;-76
2023/07/08 10:29:47;;;;;;;3.15;2.78;;;;;;;29.01;34.79;98280.03;4995798;28;20218;-75
2023/07/08 10:32:26;;;;;;;3.58;2.72;;;;;;;28.68;34.72;98276.34;4996146;28;20206;-76
2023/07/08 10:34:58;;;;;;;3.40;2.85;;;;;;;28.58;35.96;98283.00;4996226;28;20198;-76
2023/07/08 10:37:52;;;;;;;3.10;2.80;;;;;;;28.93;36.24;98278.94;4995864;28;20223;-75
2023/07/08 10:40:34;;;;;;;8.27;3.97;;;;;;;29.50;35.92;98271.75;4996465;28;20187;-76
2023/07/08 10:43:19;;;;;;;4.90;4.20;;;;;;;29.99;36.00;98290.00;4996509;28;20203;-76
2023/07/08 10:46:01;;;;;;;8.20;4.18;;;;;;;30.28;35.10;98275.31;4979393;28;20191;-76
2023/07/08 10:48:30;;;;;;;6.13;4.57;;;;;;;29.97;35.24;98275.03;4995505;28;20226;-76
2023/07/08 10:51:20;;;;;;;7.05;3.90;;;;;;;30.04;35.51;98269.78;4995576;28;20219;-76
2023/07/08 10:54:14;;;;;;;4.10;3.70;;;;;;;29.96;35.74;98274.22;4995585;28;20267;-76
2023/07/08 10:57:19;;;;;;;4.65;3.88;;;;;;;29.58;35.31;98270.91;4995386;28;20242;-76
2023/07/08 11:00:00;;;;;;;5.40;3.63;;;;;;;29.86;35.63;98277.41;4995660;28;20191;-76
2023/07/08 11:02:56;;;;;;;4.53;3.67;;;;;;;30.13;34.90;98273.25;4995261;28;20666;-76
2023/07/08 11:05:46;;;;;;;4.38;3.67;;;;;;;30.19;35.04;98272.69;4995644;28;20211;-76
2023/07/08 11:08:25;;;;;;;4.78;3.60;;;;;;;30.10;34.96;98280.19;4995384;28;20281;-75
2023/07/08 11:10:58;;;;;;;5.97;3.42;;;;;;;29.96;34.76;98266.00;4995483;28;20213;-76
2023/07/08 11:13:28;;;;;;;4.07;3.25;;;;;;;29.46;35.44;98270.81;4995225;28;20188;-75
2023/07/08 11:16:08;;;;;;;4.30;3.13;;;;;;;29.53;34.97;98275.75;4994961;28;20583;-76
2023/07/08 11:18:48;;;;;;;3.50;3.20;;;;;;;29.67;35.79;98273.56;4994838;28;20183;-76
2023/07/08 11:21:47;;;;;;;3.42;3.00;;;;;;;29.81;34.73;98266.66;4995312;28;20191;-76
2023/07/08 11:24:26;;;;;;;4.03;2.83;;;;;;;29.82;34.66;98273.72;4993716;28;20215;-76
2023/07/08 11:26:58;;;;;;;4.00;3.05;;;;;;;29.52;35.39;98261.25;4995086;28;20227;-76
2023/07/08 11:29:32;;;;;;;3.80;3.40;;;;;;;29.44;35.39;98267.59;4995439;28;20207;-76
2023/07/08 11:32:00;;;;;;;4.28;2.80;;;;;;;29.60;35.39;98267.81;4994941;28;20198;-76
2023/07/08 11:34:28;;;;;;;3.90;3.33;;;;;;;29.82;34.63;98268.25;4994663;28;20215;-75
2023/07/08 11:36:56;;;;;;;5.22;3.15;;;;;;;29.70;35.01;98267.41;4994638;28;20363;-75
2023/07/08 11:39:34;;;;;;;3.73;3.30;;;;;;;30.14;34.65;98264.69;4992729;28;20430;-75
2023/07/08 11:42:24;;;;;;;3.30;3.00;;;;;;;30.08;33.96;98263.28;4994260;28;20231;-76
2023/07/08 11:44:55;;;;;;;5.13;2.90;;;;;;;29.94;33.86;98260.03;4993870;28;20206;-76
2023/07/08 11:47:38;;;;;;;4.28;3.10;;;;;;;29.84;33.80;98259.69;4994754;28;20227;-76